Time;durP1;ratioP1;P1;durP2;ratioP2;P2;SDS_P1;SDS_P2;PMS_P1;PMS_P2;Temp;Humidity;BMP_temperature;BMP_pressure;BME280_temperature;BME280_humidity;BME280_pressure;Samples;Min_cycle;Max_cycle;Signal;HPM_P1;HPM_P2
2023/04/10 00:02:17;;;;;;;34.33;22.40;;;7.90;99.90;;;;;;5032665;28;20103;-79
2023/04/10 00:04:43;;;;;;;36.17;22.95;;;7.90;99.90;;;;;;5033209;28;20072;-78
2023/04/10 00:07:09;;;;;;;35.95;23.88;;;7.80;99.90;;;;;;5032512;28;20072;-78
2023/04/10 00:09:35;;;;;;;36.38;23.65;;;7.80;99.90;;;;;;5049497;28;20116;-78
2023/04/10 00:12:01;;;;;;;38.88;25.17;;;7.80;99.90;;;;;;5049178;28;20116;-78
2023/04/10 00:14:26;;;;;;;38.33;24.42;;;7.80;99.90;;;;;;5032419;28;20142;-78
2023/04/10 00:16:52;;;;;;;36.65;24.63;;;7.80;99.90;;;;;;5066133;28;20036;-78
2023/04/10 00:19:18;;;;;;;36.03;23.98;;;7.90;99.90;;;;;;5052288;28;20113;-78
2023/04/10 00:21:44;;;;;;;36.30;24.13;;;7.80;99.90;;;;;;5051960;28;20052;-78
2023/04/10 00:24:09;;;;;;;38.33;25.17;;;7.80;99.90;;;;;;5069614;28;20510;-78
2023/04/10 00:26:35;;;;;;;39.38;25.13;;;7.80;99.90;;;;;;5052321;28;20040;-78
2023/04/10 00:29:02;;;;;;;36.80;25.48;;;7.90;99.90;;;;;;5069677;28;20032;-79
2023/04/10 00:31:29;;;;;;;39.47;25.40;;;7.70;99.90;;;;;;5064343;28;20124;-79
2023/04/10 00:33:55;;;;;;;36.10;25.08;;;7.70;99.90;;;;;;5068995;28;20055;-80
2023/04/10 00:36:20;;;;;;;37.95;25.48;;;7.70;99.90;;;;;;5052048;28;20040;-79
2023/04/10 00:38:48;;;;;;;39.40;26.25;;;7.70;99.90;;;;;;5052250;28;20462;-79
2023/04/10 00:41:14;;;;;;;36.97;25.13;;;7.60;99.90;;;;;;5068665;28;20049;-79
2023/04/10 00:43:40;;;;;;;40.30;26.83;;;7.60;99.90;;;;;;5068712;28;20055;-78
2023/04/10 00:46:06;;;;;;;40.03;26.80;;;7.60;99.90;;;;;;5068120;28;20041;-80
2023/04/10 00:48:32;;;;;;;39.38;26.58;;;7.60;99.90;;;;;;5035698;28;20045;-80
2023/04/10 00:50:59;;;;;;;40.40;26.77;;;7.60;99.90;;;;;;5068212;28;20489;-80
2023/04/10 00:53:26;;;;;;;41.38;26.95;;;7.50;99.90;;;;;;5068621;28;20047;-80
2023/04/10 00:55:52;;;;;;;39.33;26.80;;;7.50;99.90;;;;;;5051720;28;20135;-80
2023/04/10 00:58:18;;;;;;;41.20;27.95;;;7.50;99.90;;;;;;5068667;28;20044;-78
2023/04/10 01:00:45;;;;;;;40.38;27.65;;;7.40;99.90;;;;;;5051883;28;20564;-79
2023/04/10 01:03:14;;;;;;;42.83;28.13;;;7.40;99.90;;;;;;5035727;28;20054;-79
2023/04/10 01:06:11;;;;;;;41.85;27.67;;;7.40;99.90;;;;;;5067991;28;20052;-79
2023/04/10 01:08:39;;;;;;;40.97;27.30;;;7.40;99.90;;;;;;5068383;28;20044;-79
2023/04/10 01:11:11;;;;;;;41.15;27.38;;;7.30;99.90;;;;;;5051265;28;20093;-79
2023/04/10 01:14:14;;;;;;;41.63;28.40;;;7.30;99.90;;;;;;5051395;28;20028;-79
2023/04/10 01:16:57;;;;;;;41.50;28.52;;;7.30;99.90;;;;;;5067979;28;20081;-79
2023/04/10 01:19:28;;;;;;;40.88;28.08;;;7.20;99.90;;;;;;5068214;28;20044;-79
2023/04/10 01:21:55;;;;;;;41.60;28.70;;;7.20;99.90;;;;;;5051248;28;20044;-79
2023/04/10 01:25:00;;;;;;;42.08;28.95;;;7.20;99.90;;;;;;5068052;28;20044;-79
2023/04/10 01:27:42;;;;;;;43.70;29.50;;;7.20;99.90;;;;;;5050997;28;20041;-80
2023/04/10 01:30:13;;;;;;;42.25;28.88;;;7.20;99.90;;;;;;5068320;28;20036;-80
2023/04/10 01:32:40;;;;;;;42.97;29.25;;;7.10;99.90;;;;;;5066763;28;20056;-78
2023/04/10 01:35:07;;;;;;;43.03;29.30;;;7.10;99.90;;;;;;5063472;28;20033;-78
2023/04/10 01:37:37;;;;;;;42.20;29.63;;;7.00;99.90;;;;;;5047501;28;20069;-79
2023/04/10 01:40:07;;;;;;;41.08;28.67;;;7.10;99.90;;;;;;5031281;28;20051;-79
2023/04/10 01:42:37;;;;;;;43.60;28.73;;;7.00;99.90;;;;;;5047594;28;20041;-79
2023/04/10 01:45:05;;;;;;;42.78;28.70;;;6.90;99.90;;;;;;5031463;28;20063;-79
2023/04/10 01:47:31;;;;;;;43.60;28.90;;;6.90;99.90;;;;;;5047838;28;20582;-80
2023/04/10 01:49:58;;;;;;;40.47;28.60;;;6.90;99.90;;;;;;5031289;28;20037;-80
2023/04/10 01:52:25;;;;;;;42.42;28.83;;;6.80;99.90;;;;;;5014542;28;20051;-80
2023/04/10 01:54:52;;;;;;;43.00;28.70;;;7.10;99.90;;;;;;5031182;28;20040;-79
2023/04/10 01:57:19;;;;;;;43.83;29.13;;;7.00;99.90;;;;;;5047652;28;20094;-79
2023/04/10 01:59:45;;;;;;;43.03;28.92;;;6.80;99.90;;;;;;5047788;28;20055;-79
2023/04/10 02:02:11;;;;;;;42.95;29.98;;;6.80;99.90;;;;;;5047491;28;20124;-78
2023/04/10 02:04:37;;;;;;;40.42;28.20;;;6.70;99.90;;;;;;5015113;28;20072;-77
2023/04/10 02:07:15;;;;;;;45.13;29.00;;;6.80;99.90;;;;;;5031018;28;20518;-78
2023/04/10 02:10:07;;;;;;;39.53;27.73;;;7.10;99.90;;;;;;5047612;28;20047;-79
2023/04/10 02:12:44;;;;;;;42.33;29.67;;;6.70;99.90;;;;;;5030981;28;20063;-79
2023/04/10 02:15:11;;;;;;;42.85;28.77;;;6.70;99.90;;;;;;5038092;28;20037;-79
2023/04/10 02:17:39;;;;;;;43.78;28.95;;;6.70;99.90;;;;;;5067935;28;20395;-79
2023/04/10 02:20:07;;;;;;;42.40;29.15;;;6.70;99.90;;;;;;5067695;28;20157;-79
2023/04/10 02:22:33;;;;;;;43.90;28.38;;;6.70;99.90;;;;;;5051246;28;20049;-79
2023/04/10 02:24:59;;;;;;;38.33;26.63;;;6.90;99.90;;;;;;5050889;28;20050;-79
2023/04/10 02:27:34;;;;;;;41.08;27.95;;;6.60;99.90;;;;;;5067375;28;20112;-79
2023/04/10 02:30:03;;;;;;;42.60;27.83;;;6.70;99.90;;;;;;5067415;28;20045;-79
2023/04/10 02:32:30;;;;;;;40.92;27.98;;;6.70;99.90;;;;;;5050539;28;20053;-79
2023/04/10 02:34:56;;;;;;;41.25;28.85;;;6.60;99.90;;;;;;5045442;28;20126;-79
2023/04/10 02:37:22;;;;;;;42.22;27.73;;;6.60;99.90;;;;;;5030969;28;20458;-79
2023/04/10 02:39:48;;;;;;;41.83;27.92;;;6.70;99.90;;;;;;5047374;28;20440;-79
2023/04/10 02:42:14;;;;;;;42.38;28.35;;;6.60;99.90;;;;;;5030646;28;20045;-79
2023/04/10 02:44:40;;;;;;;41.10;27.17;;;6.60;99.90;;;;;;5050402;28;20187;-79
2023/04/10 02:47:06;;;;;;;39.97;27.40;;;6.60;99.90;;;;;;5050918;28;20044;-79
2023/04/10 02:49:33;;;;;;;38.45;26.17;;;6.70;99.90;;;;;;5051037;28;20560;-79
2023/04/10 02:52:00;;;;;;;38.88;26.70;;;6.60;99.90;;;;;;5034479;28;20051;-79
2023/04/10 02:54:26;;;;;;;42.40;27.85;;;6.60;99.90;;;;;;5051046;28;20507;-79
2023/04/10 02:56:51;;;;;;;38.65;26.13;;;6.80;99.90;;;;;;5050546;28;20040;-78
2023/04/10 02:59:17;;;;;;;40.10;27.30;;;6.50;99.90;;;;;;5034390;28;20077;-78
2023/04/10 03:01:45;;;;;;;39.03;25.70;;;6.50;99.90;;;;;;5033801;28;20045;-78
2023/04/10 03:04:11;;;;;;;41.05;26.23;;;6.50;99.90;;;;;;5050988;28;20045;-78
2023/04/10 03:06:37;;;;;;;36.78;24.75;;;6.50;99.90;;;;;;5050881;28;20037;-79
2023/04/10 03:09:02;;;;;;;41.72;25.98;;;6.50;99.90;;;;;;5017546;28;20091;-78
2023/04/10 03:11:29;;;;;;;37.08;25.10;;;6.50;99.90;;;;;;5017355;28;20292;-78
2023/04/10 03:13:57;;;;;;;37.80;25.55;;;6.50;99.90;;;;;;5050404;28;20116;-78
2023/04/10 03:16:23;;;;;;;35.90;25.02;;;6.50;99.90;;;;;;5047375;28;20048;-78
2023/04/10 03:18:49;;;;;;;38.35;24.65;;;6.60;99.90;;;;;;5034245;28;20390;-79
2023/04/10 03:21:15;;;;;;;36.55;24.65;;;6.50;99.90;;;;;;5050196;28;20111;-79
2023/04/10 03:23:40;;;;;;;35.17;24.20;;;6.60;99.90;;;;;;5050490;28;20033;-78
2023/04/10 03:26:07;;;;;;;37.95;25.45;;;6.70;99.90;;;;;;5049784;28;20041;-79
2023/04/10 03:28:35;;;;;;;36.05;24.05;;;6.60;99.90;;;;;;5033830;28;20048;-79
2023/04/10 03:31:01;;;;;;;34.55;23.48;;;6.60;99.90;;;;;;5033465;28;20105;-79
2023/04/10 03:33:27;;;;;;;34.90;24.10;;;6.60;99.90;;;;;;5026395;28;20057;-79
2023/04/10 03:35:53;;;;;;;35.25;23.75;;;6.70;99.90;;;;;;5069977;28;20047;-79
2023/04/10 03:38:19;;;;;;;36.25;24.42;;;6.60;99.90;;;;;;5054043;28;20059;-80
2023/04/10 03:40:44;;;;;;;38.10;25.20;;;6.70;99.90;;;;;;5070531;28;20174;-80
2023/04/10 03:43:10;;;;;;;38.47;24.85;;;7.60;99.90;;;;;;5070095;28;20754;-80
2023/04/10 03:45:36;;;;;;;36.75;24.27;;;6.60;99.90;;;;;;5052970;28;20041;-79
2023/04/10 03:48:02;;;;;;;36.13;23.88;;;6.60;99.90;;;;;;5069982;28;20032;-79
2023/04/10 03:50:27;;;;;;;37.88;24.77;;;6.50;99.90;;;;;;5052843;28;20032;-79
2023/04/10 03:52:53;;;;;;;36.05;24.23;;;5.40;99.90;;;;;;5069857;28;20040;-79
2023/04/10 03:55:19;;;;;;;39.15;25.85;;;6.60;99.90;;;;;;5052101;28;20133;-79
2023/04/10 03:57:46;;;;;;;36.90;25.38;;;6.50;99.90;;;;;;5069594;28;20382;-78
2023/04/10 04:00:13;;;;;;;40.13;25.23;;;6.50;99.90;;;;;;5053157;28;20152;-78
2023/04/10 04:02:39;;;;;;;38.28;24.77;;;6.50;99.90;;;;;;5069531;28;20098;-80
2023/04/10 04:05:05;;;;;;;37.25;25.33;;;6.50;99.90;;;;;;5069790;28;20048;-80
2023/04/10 04:07:31;;;;;;;36.97;24.55;;;6.50;99.90;;;;;;5069346;28;20052;-78
2023/04/10 04:09:56;;;;;;;36.70;24.83;;;6.50;99.90;;;;;;5069741;28;20032;-78
2023/04/10 04:12:22;;;;;;;40.35;26.15;;;6.50;99.90;;;;;;5052504;28;20498;-79
2023/04/10 04:14:48;;;;;;;42.15;27.00;;;6.40;99.90;;;;;;5069142;28;20047;-79
2023/04/10 04:17:13;;;;;;;40.85;26.85;;;6.60;99.90;;;;;;5069471;28;20252;-78
2023/04/10 04:19:39;;;;;;;40.33;25.95;;;6.50;99.90;;;;;;5053048;28;20502;-79
2023/04/10 04:22:05;;;;;;;40.80;26.58;;;6.50;99.90;;;;;;5052540;28;20340;-79
2023/04/10 04:24:30;;;;;;;40.80;26.70;;;6.40;99.90;;;;;;5052437;28;20036;-79
2023/04/10 04:26:56;;;;;;;40.85;27.17;;;6.50;99.90;;;;;;5052296;28;20048;-78
2023/04/10 04:29:22;;;;;;;39.72;26.85;;;6.40;99.90;;;;;;5052282;28;20088;-78
2023/04/10 04:31:47;;;;;;;41.40;28.10;;;6.50;99.90;;;;;;5068823;28;20056;-79
2023/04/10 04:34:13;;;;;;;42.58;28.42;;;6.50;99.90;;;;;;5068778;28;20155;-79
2023/04/10 04:36:39;;;;;;;44.42;28.52;;;6.50;99.90;;;;;;5026717;28;20059;-79
2023/04/10 04:39:05;;;;;;;42.38;28.25;;;6.50;99.90;;;;;;5032476;28;20128;-80
2023/04/10 04:41:31;;;;;;;43.63;29.58;;;6.50;99.90;;;;;;5048615;28;20040;-79
2023/04/10 04:44:01;;;;;;;44.28;28.42;;;6.80;99.90;;;;;;5048871;28;20071;-79
2023/04/10 04:46:27;;;;;;;41.05;28.02;;;6.50;99.90;;;;;;5048478;28;20495;-79
2023/04/10 04:48:53;;;;;;;44.38;29.08;;;6.60;99.90;;;;;;5015782;28;20041;-79
2023/04/10 04:51:19;;;;;;;42.78;29.08;;;6.60;99.90;;;;;;5031705;28;20044;-79
2023/04/10 04:53:44;;;;;;;44.58;29.45;;;6.80;99.90;;;;;;5048779;28;20144;-79
2023/04/10 04:56:10;;;;;;;48.65;31.50;;;6.70;99.90;;;;;;5048383;28;20052;-78
2023/04/10 04:58:36;;;;;;;47.55;31.02;;;6.70;99.90;;;;;;5048838;28;20063;-78
2023/04/10 05:01:02;;;;;;;45.95;30.63;;;6.70;99.90;;;;;;5048482;28;20051;-78
2023/04/10 05:03:27;;;;;;;50.08;31.85;;;6.70;99.90;;;;;;5048600;28;20049;-78
2023/04/10 05:05:54;;;;;;;45.03;30.33;;;6.80;99.90;;;;;;5031306;28;20133;-78
2023/04/10 05:08:20;;;;;;;50.03;32.58;;;6.80;99.90;;;;;;5031939;28;20116;-78
2023/04/10 05:10:46;;;;;;;45.42;31.55;;;6.90;99.90;;;;;;5048127;28;20132;-79
2023/04/10 05:13:11;;;;;;;46.90;32.35;;;6.90;99.90;;;;;;5032154;28;20036;-79
2023/04/10 05:15:38;;;;;;;50.38;32.85;;;6.90;99.90;;;;;;5047277;28;20331;-79
2023/04/10 05:18:04;;;;;;;48.28;31.13;;;6.90;99.90;;;;;;5068605;28;20156;-78
2023/04/10 05:20:30;;;;;;;48.38;31.75;;;7.00;99.90;;;;;;5068208;28;20098;-79
2023/04/10 05:22:57;;;;;;;49.72;32.95;;;7.00;99.90;;;;;;5052240;28;20095;-78
2023/04/10 05:25:22;;;;;;;50.03;33.47;;;7.00;99.90;;;;;;5035343;28;20110;-78
2023/04/10 05:27:48;;;;;;;50.03;33.58;;;7.10;99.90;;;;;;5051281;28;20490;-78
2023/04/10 05:30:14;;;;;;;51.17;34.47;;;7.10;99.90;;;;;;5051551;28;20052;-79
2023/04/10 05:32:40;;;;;;;49.80;34.00;;;7.10;99.90;;;;;;5051121;28;20056;-79
2023/04/10 05:35:06;;;;;;;50.60;33.33;;;7.10;99.90;;;;;;5035102;28;20108;-78
2023/04/10 05:37:32;;;;;;;50.13;33.10;;;7.20;99.90;;;;;;5049889;28;20041;-78
2023/04/10 05:39:58;;;;;;;53.80;34.65;;;7.20;99.90;;;;;;5047836;28;20052;-78
2023/04/10 05:42:24;;;;;;;53.17;34.55;;;7.30;99.90;;;;;;5031378;28;20049;-78
2023/04/10 05:44:51;;;;;;;52.78;33.20;;;7.30;99.90;;;;;;5014951;28;20485;-79
2023/04/10 05:47:17;;;;;;;51.85;35.08;;;7.30;99.90;;;;;;5031181;28;20037;-80
2023/04/10 05:49:43;;;;;;;54.97;35.60;;;7.40;99.90;;;;;;5047973;28;20051;-79
2023/04/10 05:52:08;;;;;;;52.47;35.42;;;7.40;99.90;;;;;;5031020;28;20060;-79
2023/04/10 05:54:35;;;;;;;55.25;35.10;;;7.40;99.90;;;;;;5047760;28;20040;-79
2023/04/10 05:57:00;;;;;;;53.20;35.72;;;7.40;99.90;;;;;;5014786;28;20102;-79
2023/04/10 05:59:26;;;;;;;51.13;34.47;;;7.50;99.90;;;;;;5014914;28;20045;-79
2023/04/10 06:01:52;;;;;;;50.80;34.47;;;7.50;99.90;;;;;;5047544;28;20560;-78
2023/04/10 06:04:20;;;;;;;49.40;33.47;;;7.50;99.90;;;;;;5047693;28;20041;-79
2023/04/10 06:06:46;;;;;;;53.42;35.33;;;7.60;99.90;;;;;;5048147;28;20041;-79
2023/04/10 06:09:11;;;;;;;54.95;35.92;;;7.80;99.90;;;;;;5031092;28;20562;-79
2023/04/10 06:11:37;;;;;;;50.10;34.38;;;7.60;99.90;;;;;;5047417;28;20084;-78
2023/04/10 06:14:03;;;;;;;54.22;35.08;;;7.70;99.90;;;;;;5037722;28;20036;-79
2023/04/10 06:16:28;;;;;;;51.22;34.78;;;7.80;99.90;;;;;;5050823;28;20044;-79
2023/04/10 06:18:54;;;;;;;52.60;35.88;;;7.80;99.90;;;;;;5052814;28;20090;-79
2023/04/10 06:21:20;;;;;;;51.55;35.17;;;7.90;99.90;;;;;;5038075;28;20041;-79
2023/04/10 06:23:46;;;;;;;51.10;34.58;;;7.90;99.90;;;;;;5054989;28;20032;-78
2023/04/10 06:26:11;;;;;;;55.35;36.58;;;8.00;99.90;;;;;;5071270;28;20036;-78
2023/04/10 06:28:37;;;;;;;50.63;34.45;;;8.10;99.90;;;;;;5054775;28;20569;-79
2023/04/10 06:31:05;;;;;;;49.90;35.38;;;8.10;99.90;;;;;;5054511;28;20032;-79
2023/04/10 06:33:34;;;;;;;49.95;34.80;;;8.20;99.90;;;;;;5054679;28;20053;-79
2023/04/10 06:36:00;;;;;;;51.88;35.13;;;8.30;99.90;;;;;;5047438;28;20121;-79
2023/04/10 06:38:26;;;;;;;49.30;34.38;;;8.40;99.90;;;;;;5051269;28;20538;-79
2023/04/10 06:40:52;;;;;;;49.55;34.88;;;8.40;99.90;;;;;;5051119;28;20040;-78
2023/04/10 06:43:17;;;;;;;52.70;35.17;;;8.50;99.90;;;;;;5050940;28;20147;-79
2023/04/10 06:45:44;;;;;;;53.78;34.88;;;8.60;99.90;;;;;;5034274;28;20045;-79
2023/04/10 06:48:09;;;;;;;52.55;35.55;;;8.60;99.90;;;;;;5034941;28;20040;-78
2023/04/10 06:50:35;;;;;;;51.85;34.65;;;8.70;99.90;;;;;;5033983;28;20029;-79
2023/04/10 06:53:01;;;;;;;49.95;33.33;;;8.70;99.90;;;;;;5018193;28;20039;-80
2023/04/10 06:55:27;;;;;;;53.22;34.70;;;8.70;99.90;;;;;;5034270;28;20403;-80
2023/04/10 06:57:54;;;;;;;48.42;34.25;;;8.80;99.90;;;;;;5018169;28;20079;-79
2023/04/10 07:00:21;;;;;;;49.33;33.50;;;8.90;99.90;;;;;;5034305;28;20044;-79
2023/04/10 07:02:46;;;;;;;49.75;33.10;;;9.00;99.90;;;;;;5033892;28;20037;-78
2023/04/10 07:05:13;;;;;;;50.17;33.50;;;9.10;99.90;;;;;;5033907;28;20041;-79
2023/04/10 07:07:38;;;;;;;52.00;34.60;;;9.20;99.90;;;;;;5033801;28;20055;-78
2023/04/10 07:10:05;;;;;;;50.47;33.55;;;9.30;99.90;;;;;;5034040;28;20045;-79
2023/04/10 07:12:31;;;;;;;52.70;36.17;;;9.40;99.90;;;;;;5033864;28;20099;-80
2023/04/10 07:14:57;;;;;;;50.13;34.20;;;9.50;99.90;;;;;;5045441;28;20044;-80
2023/04/10 07:17:23;;;;;;;53.20;34.55;;;9.50;99.90;;;;;;5053938;28;20040;-80
2023/04/10 07:19:49;;;;;;;51.63;34.40;;;9.50;99.90;;;;;;5054094;28;20108;-79
2023/04/10 07:22:15;;;;;;;53.38;34.35;;;9.40;99.90;;;;;;5070129;28;20527;-79
2023/04/10 07:24:41;;;;;;;48.40;33.03;;;9.40;99.90;;;;;;5071004;28;20048;-80
2023/04/10 07:27:07;;;;;;;53.03;34.30;;;9.50;99.90;;;;;;5069980;28;20425;-79
2023/04/10 07:29:33;;;;;;;51.60;33.55;;;9.50;99.90;;;;;;5052653;28;20072;-79
2023/04/10 07:31:58;;;;;;;49.35;33.42;;;9.60;99.90;;;;;;5053023;28;20072;-79
2023/04/10 07:34:24;;;;;;;49.72;33.13;;;9.70;99.90;;;;;;5059479;28;20052;-78
2023/04/10 07:36:51;;;;;;;50.90;32.58;;;9.80;99.90;;;;;;5049873;28;20095;-79
2023/04/10 07:39:17;;;;;;;47.20;32.60;;;9.90;99.90;;;;;;5033462;28;20051;-79
2023/04/10 07:41:43;;;;;;;47.67;31.23;;;10.00;99.90;;;;;;5033235;28;20073;-79
2023/04/10 07:44:09;;;;;;;44.25;30.52;;;10.10;99.90;;;;;;5033537;28;20098;-79
2023/04/10 07:46:35;;;;;;;44.08;29.70;;;10.20;99.90;;;;;;5049600;28;20041;-79
2023/04/10 07:49:01;;;;;;;45.67;30.55;;;10.30;99.90;;;;;;5033712;28;20071;-80
2023/04/10 07:51:28;;;;;;;42.63;30.02;;;10.40;99.90;;;;;;5049672;28;20472;-80
2023/04/10 07:53:54;;;;;;;45.25;29.63;;;10.50;99.90;;;;;;5033471;28;20091;-78
2023/04/10 07:56:21;;;;;;;42.55;29.17;;;10.70;99.90;;;;;;5033658;28;20040;-79
2023/04/10 07:58:47;;;;;;;43.28;27.65;;;10.80;99.90;;;;;;5033119;28;20493;-80
2023/04/10 08:01:13;;;;;;;41.15;27.98;;;11.00;99.90;;;;;;5033190;28;20064;-79
2023/04/10 08:03:44;;;;;;;41.75;28.30;;;11.20;99.90;;;;;;5049808;28;20041;-79
2023/04/10 08:06:11;;;;;;;39.47;26.20;;;11.40;99.90;;;;;;5049238;28;20484;-78
2023/04/10 08:08:38;;;;;;;39.05;25.52;;;11.60;99.90;;;;;;5049950;28;20033;-79
2023/04/10 08:11:20;;;;;;;40.78;27.02;;;11.70;99.90;;;;;;5032728;28;20041;-79
2023/04/10 08:13:46;;;;;;;35.83;24.15;;;11.80;99.90;;;;;;5054257;28;20043;-79
2023/04/10 08:16:11;;;;;;;40.00;25.90;;;11.90;99.90;;;;;;5069367;28;20040;-79
2023/04/10 08:18:37;;;;;;;37.97;25.17;;;11.90;99.90;;;;;;5052736;28;20382;-79
2023/04/10 08:21:03;;;;;;;36.92;24.33;;;12.00;99.90;;;;;;5052618;28;20067;-80
2023/04/10 08:23:29;;;;;;;36.03;23.65;;;12.00;99.90;;;;;;5052897;28;20094;-80
2023/04/10 08:25:54;;;;;;;35.88;24.60;;;12.10;99.90;;;;;;5035772;28;20447;-80
2023/04/10 08:28:20;;;;;;;35.15;23.15;;;12.10;99.90;;;;;;5069255;28;20047;-80
2023/04/10 08:30:46;;;;;;;36.05;24.10;;;12.10;99.90;;;;;;5069412;28;20522;-79
2023/04/10 08:33:11;;;;;;;34.80;23.38;;;12.20;99.90;;;;;;5066416;28;20044;-77
2023/04/10 08:35:37;;;;;;;31.52;21.65;;;12.20;99.90;;;;;;5048750;28;20037;-79
2023/04/10 08:38:03;;;;;;;32.60;21.17;;;12.20;99.90;;;;;;5049016;28;20037;-78
2023/04/10 08:40:29;;;;;;;30.40;20.77;;;12.30;99.90;;;;;;5022893;28;20032;-79
2023/04/10 08:42:54;;;;;;;31.48;20.65;;;12.50;99.90;;;;;;5066641;28;20075;-78
2023/04/10 08:45:20;;;;;;;27.75;19.13;;;12.60;99.90;;;;;;5048660;28;20127;-78
2023/04/10 08:47:50;;;;;;;29.23;19.95;;;12.70;99.90;;;;;;5062943;28;20075;-78
2023/04/10 08:50:17;;;;;;;28.42;19.63;;;12.80;99.90;;;;;;5052576;28;20123;-79
2023/04/10 08:52:45;;;;;;;29.25;19.00;;;13.00;99.90;;;;;;5050162;28;20042;-79
2023/04/10 08:55:13;;;;;;;29.67;18.20;;;14.10;99.90;;;;;;5036146;28;20068;-80
2023/04/10 08:57:40;;;;;;;28.77;18.38;;;13.20;99.90;;;;;;5062563;28;20067;-80
2023/04/10 09:00:06;;;;;;;27.38;18.20;;;13.30;99.90;;;;;;5048959;28;20249;-79
2023/04/10 09:02:32;;;;;;;26.42;18.80;;;13.30;99.90;;;;;;5058633;28;20036;-78
2023/04/10 09:05:01;;;;;;;28.00;17.52;;;13.20;99.90;;;;;;5051311;28;20036;-78
2023/04/10 09:07:27;;;;;;;27.17;18.50;;;13.20;99.90;;;;;;5050960;28;20051;-78
2023/04/10 09:09:53;;;;;;;27.27;18.23;;;13.40;99.90;;;;;;5057620;28;20148;-78
2023/04/10 09:12:18;;;;;;;24.27;16.67;;;13.50;99.90;;;;;;5063328;28;20041;-77
2023/04/10 09:14:44;;;;;;;24.73;16.02;;;13.60;99.90;;;;;;5069637;28;20067;-77
2023/04/10 09:17:12;;;;;;;25.77;16.95;;;13.70;99.90;;;;;;5057114;28;20036;-78
2023/04/10 09:19:38;;;;;;;23.58;16.35;;;13.80;99.90;;;;;;5041380;28;20064;-78
2023/04/10 09:22:04;;;;;;;24.88;15.85;;;13.80;99.90;;;;;;5068544;28;20049;-78
2023/04/10 09:24:30;;;;;;;26.80;16.80;;;13.90;99.90;;;;;;5034522;28;20526;-78
2023/04/10 09:26:55;;;;;;;22.88;14.82;;;13.90;99.90;;;;;;5047442;28;20145;-78
2023/04/10 09:29:21;;;;;;;24.60;15.63;;;13.90;99.90;;;;;;5029312;28;20529;-78
2023/04/10 09:31:47;;;;;;;23.88;15.93;;;14.00;99.90;;;;;;5064683;28;20452;-78
2023/04/10 09:34:16;;;;;;;23.80;15.68;;;14.20;99.90;;;;;;5052786;28;20517;-79
2023/04/10 09:36:56;;;;;;;24.15;15.85;;;14.40;99.90;;;;;;5056106;28;20045;-77
2023/04/10 09:39:33;;;;;;;23.02;15.35;;;14.40;99.90;;;;;;5031337;28;20044;-78
2023/04/10 09:41:59;;;;;;;23.80;16.25;;;14.50;99.90;;;;;;5061982;28;20282;-79
2023/04/10 09:44:33;;;;;;;23.45;15.25;;;14.50;99.90;;;;;;5060606;28;20965;-78
2023/04/10 09:47:17;;;;;;;21.85;14.93;;;14.50;99.90;;;;;;5066200;28;20189;-78
2023/04/10 09:49:48;;;;;;;24.35;16.17;;;14.50;99.90;;;;;;5058330;28;20547;-77
2023/04/10 09:52:37;;;;;;;22.75;14.82;;;14.50;99.90;;;;;;5037753;28;20036;-78
2023/04/10 09:55:05;;;;;;;23.75;15.15;;;14.70;99.90;;;;;;5038061;28;20767;-79
2023/04/10 09:57:32;;;;;;;22.20;14.77;;;14.80;99.90;;;;;;5056523;28;20495;-79
2023/04/10 09:59:59;;;;;;;21.83;14.45;;;14.90;99.90;;;;;;5056908;28;20036;-79
2023/04/10 10:02:30;;;;;;;21.02;13.57;;;15.00;99.90;;;;;;5062338;28;20039;-78
2023/04/10 10:04:59;;;;;;;22.23;15.15;;;15.10;99.90;;;;;;5061841;28;20068;-78
2023/04/10 10:07:26;;;;;;;22.05;15.00;;;15.20;99.90;;;;;;5047383;28;20102;-78
2023/04/10 10:09:52;;;;;;;23.38;15.25;;;15.30;99.90;;;;;;5045598;28;20047;-79
2023/04/10 10:12:29;;;;;;;25.02;14.85;;;15.40;99.90;;;;;;5050471;28;20037;-78
2023/04/10 10:15:25;;;;;;;20.95;14.23;;;15.50;99.90;;;;;;5050842;28;20036;-80
2023/04/10 10:18:09;;;;;;;22.60;14.20;;;15.50;99.90;;;;;;5067761;28;20076;-79
2023/04/10 10:20:38;;;;;;;20.42;13.75;;;15.50;99.90;;;;;;5066157;28;20488;-79
2023/04/10 10:23:05;;;;;;;20.90;14.48;;;15.50;99.90;;;;;;5056702;28;20052;-78
2023/04/10 10:25:34;;;;;;;21.20;14.27;;;15.50;99.90;;;;;;5031683;28;20055;-78
2023/04/10 10:28:03;;;;;;;19.75;13.18;;;15.60;99.90;;;;;;5055625;28;20040;-78
2023/04/10 10:30:32;;;;;;;20.10;13.38;;;15.70;99.90;;;;;;5020366;28;20045;-77
2023/04/10 10:32:59;;;;;;;22.20;14.50;;;15.60;99.90;;;;;;5050798;28;20048;-77
2023/04/10 10:35:30;;;;;;;20.77;14.30;;;15.70;99.90;;;;;;5067391;28;20041;-77
2023/04/10 10:38:01;;;;;;;21.10;13.70;;;15.60;99.90;;;;;;5050139;28;20075;-77
2023/04/10 10:40:48;;;;;;;19.63;12.85;;;15.60;99.90;;;;;;5067155;28;20047;-78
2023/04/10 10:43:16;;;;;;;19.75;13.30;;;15.60;99.90;;;;;;5067322;28;20047;-78
2023/04/10 10:45:54;;;;;;;20.15;12.63;;;15.70;99.90;;;;;;5066840;28;20457;-79
2023/04/10 10:48:20;;;;;;;18.65;12.23;;;15.70;99.90;;;;;;5065071;28;20074;-79
2023/04/10 10:50:55;;;;;;;20.77;12.88;;;15.70;99.90;;;;;;5048070;28;20037;-77
2023/04/10 10:53:39;;;;;;;18.10;11.40;;;15.70;99.90;;;;;;5043303;28;20051;-79
2023/04/10 10:56:22;;;;;;;18.60;12.05;;;15.70;99.90;;;;;;5045994;28;20044;-78
2023/04/10 10:58:57;;;;;;;17.77;11.43;;;15.60;99.90;;;;;;5046002;28;20124;-79
2023/04/10 11:01:23;;;;;;;16.75;10.40;;;15.50;99.90;;;;;;5064939;28;20040;-78
2023/04/10 11:03:49;;;;;;;14.93;9.50;;;15.50;99.90;;;;;;5042113;28;20387;-79
2023/04/10 11:06:18;;;;;;;14.65;8.50;;;15.50;99.90;;;;;;5070651;28;20505;-77
2023/04/10 11:08:50;;;;;;;13.18;7.50;;;15.50;99.90;;;;;;5069867;28;20374;-79
2023/04/10 11:11:23;;;;;;;15.23;7.95;;;15.50;99.90;;;;;;5053929;28;20257;-79
2023/04/10 11:13:49;;;;;;;17.05;8.23;;;15.50;99.90;;;;;;5037348;28;20036;-79
2023/04/10 11:16:15;;;;;;;13.43;7.13;;;15.50;99.90;;;;;;5070632;28;20123;-79
2023/04/10 11:18:44;;;;;;;13.35;7.15;;;15.50;99.90;;;;;;5036607;28;20079;-79
2023/04/10 11:21:10;;;;;;;13.13;7.53;;;15.50;99.90;;;;;;5064582;28;20036;-77
2023/04/10 11:23:37;;;;;;;13.75;7.38;;;15.50;99.90;;;;;;5066726;28;20037;-79
2023/04/10 11:26:03;;;;;;;12.68;7.07;;;15.70;99.90;;;;;;5045938;28;20522;-79
2023/04/10 11:28:32;;;;;;;12.25;7.03;;;15.80;99.90;;;;;;5033858;28;20168;-79
2023/04/10 11:31:25;;;;;;;12.57;7.10;;;15.90;99.90;;;;;;5051661;28;20036;-79
2023/04/10 11:34:01;;;;;;;12.32;7.32;;;15.80;99.90;;;;;;5080202;28;20053;-77
2023/04/10 11:36:27;;;;;;;11.88;6.90;;;15.80;99.90;;;;;;5049764;28;20037;-78
2023/04/10 11:39:07;;;;;;;11.77;6.72;;;15.70;99.90;;;;;;5033828;28;20047;-78
2023/04/10 11:41:38;;;;;;;11.60;6.70;;;15.70;99.90;;;;;;5066024;28;20171;-78
2023/04/10 11:44:06;;;;;;;12.02;6.85;;;15.70;99.90;;;;;;5060392;28;20060;-78
2023/04/10 11:46:39;;;;;;;12.25;6.68;;;15.70;99.90;;;;;;5052175;28;20041;-78
2023/04/10 11:49:10;;;;;;;11.07;6.30;;;15.80;99.90;;;;;;5042155;28;20205;-77
2023/04/10 11:51:37;;;;;;;10.85;6.28;;;15.70;99.90;;;;;;5033372;28;20179;-78
2023/04/10 11:54:23;;;;;;;11.43;6.15;;;15.70;99.90;;;;;;5028332;28;20037;-78
2023/04/10 11:57:09;;;;;;;12.23;6.72;;;15.80;99.90;;;;;;5058419;28;20115;-78
2023/04/10 11:59:35;;;;;;;11.07;6.43;;;15.80;99.90;;;;;;5054255;28;20051;-78
2023/04/10 12:02:15;;;;;;;12.25;6.20;;;15.80;99.90;;;;;;5047521;28;20041;-78
2023/04/10 12:04:44;;;;;;;11.52;6.50;;;15.70;99.90;;;;;;5049622;28;20040;-78
2023/04/10 12:07:10;;;;;;;10.38;5.65;;;15.90;99.90;;;;;;5060570;28;20421;-78
2023/04/10 12:09:36;;;;;;;11.00;5.93;;;15.90;99.90;;;;;;5055857;28;20037;-78
2023/04/10 12:12:03;;;;;;;10.77;6.10;;;16.00;99.90;;;;;;5067628;28;20037;-78
2023/04/10 12:14:32;;;;;;;10.45;5.63;;;16.10;99.90;;;;;;5067104;28;20379;-78
2023/04/10 12:16:59;;;;;;;10.68;5.68;;;16.20;99.90;;;;;;5066517;28;20478;-78
2023/04/10 12:19:25;;;;;;;10.70;5.53;;;16.30;99.90;;;;;;5034650;28;20052;-78
2023/04/10 12:21:51;;;;;;;11.15;5.72;;;16.40;99.90;;;;;;5043384;28;20064;-78
2023/04/10 12:24:43;;;;;;;10.13;5.15;;;16.50;99.90;;;;;;5032470;28;20157;-78
2023/04/10 12:27:15;;;;;;;9.45;4.68;;;16.60;99.90;;;;;;5046257;28;20124;-78
2023/04/10 12:29:41;;;;;;;9.25;4.53;;;16.80;99.90;;;;;;5068977;28;20036;-78
2023/04/10 12:32:10;;;;;;;10.20;4.70;;;16.90;99.90;;;;;;5066971;28;20052;-78
2023/04/10 12:34:36;;;;;;;8.93;4.10;;;17.00;99.90;;;;;;5050369;28;20049;-78
2023/04/10 12:37:01;;;;;;;8.88;4.30;;;17.20;99.90;;;;;;5033302;28;20036;-78
2023/04/10 12:39:28;;;;;;;8.98;4.18;;;17.30;99.90;;;;;;5048893;28;20059;-78